Time;durP1;ratioP1;P1;durP2;ratioP2;P2;SDS_P1;SDS_P2;PMS_P1;PMS_P2;Temp;Humidity;BMP_temperature;BMP_pressure;BME280_temperature;BME280_humidity;BME280_pressure;Samples;Min_cycle;Max_cycle;Signal;HPM_P1;HPM_P2
2021/07/05 00:00:58;;;;;;;1.27;0.30;;;18.00;79.20;;;;;;5074918;28;20143;-78
2021/07/05 00:03:24;;;;;;;1.00;0.38;;;18.10;78.80;;;;;;5073396;28;20233;-78
2021/07/05 00:05:50;;;;;;;0.35;0.30;;;18.20;78.20;;;;;;5093935;28;20085;-77
2021/07/05 00:08:15;;;;;;;0.35;0.25;;;18.30;78.20;;;;;;5095278;28;20056;-78
2021/07/05 00:10:41;;;;;;;0.32;0.20;;;18.20;78.40;;;;;;5089551;28;20027;-78
2021/07/05 00:13:07;;;;;;;0.30;0.20;;;18.20;78.60;;;;;;5075069;28;20483;-78
2021/07/05 00:15:34;;;;;;;0.65;0.30;;;18.20;78.70;;;;;;5074656;28;20390;-78
2021/07/05 00:18:03;;;;;;;0.70;0.40;;;18.30;78.30;;;;;;5074970;28;20574;-78
2021/07/05 00:20:31;;;;;;;0.20;0.20;;;18.20;77.90;;;;;;5075054;28;20031;-78
2021/07/05 00:22:57;;;;;;;0.50;0.30;;;18.20;78.40;;;;;;5073692;28;20119;-78
2021/07/05 00:25:23;;;;;;;0.50;0.30;;;18.30;77.90;;;;;;5074619;28;20024;-78
2021/07/05 00:27:49;;;;;;;0.50;0.35;;;18.30;77.90;;;;;;5090113;28;20068;-78
2021/07/05 00:30:16;;;;;;;0.50;0.30;;;18.30;78.20;;;;;;5074876;28;20020;-78
2021/07/05 00:32:46;;;;;;;0.63;0.40;;;18.20;78.40;;;;;;5073363;28;20028;-78
2021/07/05 00:35:13;;;;;;;0.67;0.40;;;18.20;78.60;;;;;;5074831;28;20017;-78
2021/07/05 00:37:39;;;;;;;0.52;0.38;;;18.30;78.30;;;;;;5074742;28;20444;-78
2021/07/05 00:40:11;;;;;;;0.43;0.30;;;18.30;77.90;;;;;;5080840;28;20040;-78
2021/07/05 00:42:37;;;;;;;0.77;0.30;;;18.30;77.60;;;;;;5093834;28;20017;-78
2021/07/05 00:45:05;;;;;;;0.40;0.30;;;18.40;77.30;;;;;;5094793;28;20032;-78
2021/07/05 00:47:31;;;;;;;0.40;0.30;;;18.50;77.40;;;;;;5094800;28;20028;-78
2021/07/05 00:49:57;;;;;;;0.55;0.30;;;18.50;77.10;;;;;;5078050;28;20032;-78
2021/07/05 00:52:22;;;;;;;1.00;0.30;;;18.50;77.00;;;;;;5078052;28;20410;-77
2021/07/05 00:54:50;;;;;;;0.57;0.30;;;18.40;77.40;;;;;;5097326;28;20026;-78
2021/07/05 00:57:25;;;;;;;0.60;0.40;;;18.30;77.60;;;;;;5098526;28;20028;-77
2021/07/05 00:59:55;;;;;;;0.63;0.30;;;18.20;78.50;;;;;;5097175;28;20492;-77
2021/07/05 01:02:22;;;;;;;1.05;0.38;;;18.20;78.70;;;;;;5098382;28;20020;-78
2021/07/05 01:04:49;;;;;;;0.50;0.22;;;18.10;81.10;;;;;;5098331;28;20470;-77
2021/07/05 01:07:15;;;;;;;0.55;0.28;;;17.90;81.80;;;;;;5081179;28;20028;-78
2021/07/05 01:09:42;;;;;;;0.60;0.30;;;18.00;82.70;;;;;;5077899;28;20565;-78
2021/07/05 01:12:12;;;;;;;0.50;0.30;;;17.90;81.20;;;;;;5077691;28;20028;-78
2021/07/05 01:14:38;;;;;;;0.70;0.20;;;17.90;81.80;;;;;;5077895;28;20017;-77
2021/07/05 01:17:10;;;;;;;0.43;0.30;;;17.90;82.20;;;;;;5077737;28;20670;-77
2021/07/05 01:19:47;;;;;;;0.30;0.30;;;17.90;81.70;;;;;;5077404;28;20376;-77
2021/07/05 01:22:13;;;;;;;0.47;0.30;;;18.00;80.60;;;;;;5077609;28;20060;-77
2021/07/05 01:24:43;;;;;;;0.30;0.20;;;18.00;80.10;;;;;;5082806;28;20075;-77
2021/07/05 01:27:09;;;;;;;0.40;0.20;;;18.10;80.00;;;;;;5075819;28;20143;-77
2021/07/05 01:29:36;;;;;;;0.25;0.25;;;18.00;80.20;;;;;;5077091;28;20039;-78
2021/07/05 01:32:02;;;;;;;0.40;0.30;;;18.00;80.30;;;;;;5077520;28;20024;-77
2021/07/05 01:34:28;;;;;;;0.30;0.20;;;18.00;80.00;;;;;;5077326;28;20023;-76
2021/07/05 01:37:00;;;;;;;0.30;0.20;;;18.00;79.50;;;;;;5077511;28;20016;-77
2021/07/05 01:39:25;;;;;;;0.40;0.30;;;18.00;78.90;;;;;;5085363;28;20036;-77
2021/07/05 01:41:51;;;;;;;0.52;0.30;;;18.10;78.70;;;;;;5097577;28;20028;-77
2021/07/05 01:44:17;;;;;;;0.35;0.22;;;18.10;78.60;;;;;;5097277;28;20050;-77
2021/07/05 01:46:43;;;;;;;0.60;0.20;;;18.10;78.70;;;;;;5091772;28;20476;-77
2021/07/05 01:49:10;;;;;;;0.30;0.20;;;18.00;78.70;;;;;;5077177;28;20028;-77
2021/07/05 01:51:36;;;;;;;0.50;0.30;;;18.00;78.60;;;;;;5077317;28;20054;-78
2021/07/05 01:54:02;;;;;;;0.28;0.20;;;18.00;78.70;;;;;;5107616;28;20509;-77
2021/07/05 01:56:28;;;;;;;0.20;0.20;;;18.00;78.80;;;;;;5095955;28;20020;-78
2021/07/05 01:58:54;;;;;;;0.50;0.32;;;18.00;78.80;;;;;;5097326;28;20030;-77
2021/07/05 02:01:20;;;;;;;0.22;0.20;;;18.00;79.10;;;;;;5095820;28;20027;-77
2021/07/05 02:03:45;;;;;;;0.20;0.20;;;18.00;79.10;;;;;;5096886;28;20024;-77
2021/07/05 02:06:11;;;;;;;0.90;0.30;;;17.90;79.60;;;;;;5093318;28;20108;-77
2021/07/05 02:08:38;;;;;;;0.22;0.20;;;17.90;79.20;;;;;;5076655;28;20058;-77
2021/07/05 02:11:04;;;;;;;0.30;0.20;;;17.90;79.40;;;;;;5076771;28;20023;-77
2021/07/05 02:13:32;;;;;;;0.32;0.20;;;18.00;78.90;;;;;;5075291;28;20052;-77
2021/07/05 02:16:00;;;;;;;0.57;0.22;;;18.00;78.60;;;;;;5081459;28;20119;-77
2021/07/05 02:18:27;;;;;;;1.40;0.30;;;18.00;78.60;;;;;;5096746;28;20027;-77
2021/07/05 02:20:54;;;;;;;0.30;0.20;;;18.00;78.70;;;;;;5094362;28;20034;-77
2021/07/05 02:23:21;;;;;;;0.20;0.20;;;18.00;78.90;;;;;;5076434;28;20028;-77
2021/07/05 02:25:48;;;;;;;0.30;0.30;;;18.00;78.50;;;;;;5076390;28;20029;-77
2021/07/05 02:28:19;;;;;;;0.40;0.30;;;18.00;78.70;;;;;;5093271;28;20055;-77
2021/07/05 02:30:47;;;;;;;0.60;0.30;;;18.00;78.60;;;;;;5092085;28;20040;-77
2021/07/05 02:33:13;;;;;;;0.40;0.30;;;18.00;78.80;;;;;;5076239;28;20021;-77
2021/07/05 02:35:39;;;;;;;0.30;0.30;;;18.00;79.00;;;;;;5075994;28;20102;-77
2021/07/05 02:38:10;;;;;;;0.52;0.20;;;18.00;78.90;;;;;;5076203;28;20029;-77
2021/07/05 02:40:40;;;;;;;0.40;0.30;;;18.00;78.80;;;;;;5078269;28;20078;-77
2021/07/05 02:43:06;;;;;;;0.60;0.30;;;17.90;78.90;;;;;;5085983;28;20040;-78
2021/07/05 02:45:34;;;;;;;0.30;0.30;;;17.90;79.20;;;;;;5096122;28;20031;-77
2021/07/05 02:48:09;;;;;;;0.47;0.32;;;18.00;78.80;;;;;;5096310;28;20016;-77
2021/07/05 02:50:36;;;;;;;0.50;0.30;;;18.00;78.60;;;;;;5093885;28;20120;-77
2021/07/05 02:53:03;;;;;;;0.40;0.30;;;18.00;78.80;;;;;;5096227;28;20073;-77
2021/07/05 02:55:28;;;;;;;1.25;0.30;;;18.00;78.80;;;;;;5094730;28;20490;-77
2021/07/05 02:57:54;;;;;;;0.50;0.30;;;17.90;79.10;;;;;;5093728;28;20508;-77
2021/07/05 03:00:28;;;;;;;0.60;0.30;;;17.90;79.20;;;;;;5075742;28;20042;-77
2021/07/05 03:02:54;;;;;;;0.70;0.30;;;17.80;79.40;;;;;;5076084;28;20021;-77
2021/07/05 03:05:23;;;;;;;0.68;0.47;;;17.80;79.40;;;;;;5075381;28;20021;-77
2021/07/05 03:08:07;;;;;;;1.45;0.40;;;17.80;79.40;;;;;;5075615;28;20090;-77
2021/07/05 03:10:35;;;;;;;0.75;0.32;;;17.80;79.00;;;;;;5075575;28;20021;-77
2021/07/05 03:13:04;;;;;;;0.30;0.20;;;17.80;79.00;;;;;;5075620;28;20090;-77
2021/07/05 03:15:30;;;;;;;1.70;0.40;;;17.80;79.10;;;;;;5074766;28;20021;-77
2021/07/05 03:17:57;;;;;;;0.50;0.40;;;17.80;79.00;;;;;;5075591;28;20034;-77
2021/07/05 03:20:26;;;;;;;0.68;0.30;;;17.80;79.20;;;;;;5075387;28;20024;-77
2021/07/05 03:22:53;;;;;;;0.70;0.30;;;17.70;79.10;;;;;;5075423;28;20028;-77
2021/07/05 03:25:27;;;;;;;0.38;0.30;;;17.80;79.00;;;;;;5085880;28;20103;-77
2021/07/05 03:27:56;;;;;;;0.40;0.30;;;17.80;79.10;;;;;;5095424;28;20362;-77
2021/07/05 03:30:23;;;;;;;0.35;0.30;;;17.70;79.30;;;;;;5095502;28;20600;-77
2021/07/05 03:32:50;;;;;;;0.63;0.32;;;17.70;79.20;;;;;;5076675;28;20036;-77
2021/07/05 03:35:17;;;;;;;0.45;0.30;;;17.70;79.40;;;;;;5075430;28;20119;-77
2021/07/05 03:37:43;;;;;;;0.30;0.30;;;17.60;79.40;;;;;;5075274;28;20059;-77
2021/07/05 03:40:12;;;;;;;0.68;0.40;;;17.60;79.20;;;;;;5073955;28;20410;-76
2021/07/05 03:42:38;;;;;;;0.47;0.30;;;17.50;79.30;;;;;;5073961;28;20028;-77
2021/07/05 03:45:06;;;;;;;0.55;0.30;;;17.40;79.30;;;;;;5075283;28;20108;-77
2021/07/05 03:47:32;;;;;;;0.63;0.30;;;17.30;79.60;;;;;;5075319;28;20021;-77
2021/07/05 03:50:02;;;;;;;0.50;0.40;;;17.30;79.80;;;;;;5075157;28;20090;-77
2021/07/05 03:52:30;;;;;;;0.50;0.33;;;17.20;80.20;;;;;;5092860;28;20158;-77
2021/07/05 03:54:55;;;;;;;0.45;0.30;;;17.10;80.50;;;;;;5093962;28;20036;-77
2021/07/05 03:57:25;;;;;;;0.50;0.30;;;17.10;80.20;;;;;;5085570;28;20021;-77
2021/07/05 03:59:52;;;;;;;;;;;17.00;79.90;;;;;;5075563;28;20497;-77
2021/07/05 04:02:19;;;;;;;0.47;0.30;;;16.90;80.30;;;;;;5075308;28;19911;-77
2021/07/05 04:05:06;;;;;;;0.63;0.40;;;16.90;80.20;;;;;;5074942;28;20103;-77
2021/07/05 04:07:32;;;;;;;0.50;0.30;;;16.90;80.50;;;;;;5075074;28;20039;-77
2021/07/05 04:09:58;;;;;;;0.30;0.30;;;17.00;80.50;;;;;;5075141;28;20021;-77
2021/07/05 04:12:23;;;;;;;0.40;0.30;;;17.00;80.40;;;;;;5075040;28;20029;-77
2021/07/05 04:14:51;;;;;;;0.52;0.38;;;17.00;80.10;;;;;;5074757;28;20063;-77
2021/07/05 04:17:20;;;;;;;0.70;0.40;;;17.10;80.20;;;;;;5080095;28;20082;-77
2021/07/05 04:19:46;;;;;;;0.43;0.32;;;17.00;80.50;;;;;;5095430;28;20036;-77
2021/07/05 04:22:19;;;;;;;0.60;0.40;;;17.10;80.40;;;;;;5095167;28;20486;-77
2021/07/05 04:24:45;;;;;;;0.30;0.30;;;17.10;80.70;;;;;;5083461;28;20140;-77
2021/07/05 04:27:12;;;;;;;0.50;0.40;;;17.10;80.50;;;;;;5076680;28;20040;-78
2021/07/05 04:29:38;;;;;;;0.47;0.30;;;17.10;80.20;;;;;;5078466;28;20479;-77
2021/07/05 04:32:08;;;;;;;0.40;0.30;;;17.10;80.20;;;;;;5078446;28;20059;-77
2021/07/05 04:34:34;;;;;;;0.60;0.40;;;17.20;80.00;;;;;;5078646;28;20103;-77
2021/07/05 04:37:00;;;;;;;0.70;0.40;;;17.20;80.30;;;;;;5078571;28;20028;-77
2021/07/05 04:39:28;;;;;;;0.40;0.30;;;17.30;79.90;;;;;;5089848;28;20050;-77
2021/07/05 04:41:56;;;;;;;0.52;0.32;;;17.20;79.90;;;;;;5098665;28;20036;-77
2021/07/05 04:44:22;;;;;;;0.70;0.40;;;17.20;79.90;;;;;;5098195;28;20787;-77
2021/07/05 04:46:49;;;;;;;0.35;0.30;;;17.20;80.30;;;;;;5079609;28;20029;-77
2021/07/05 04:49:19;;;;;;;0.40;0.30;;;17.20;80.00;;;;;;5078231;28;20029;-78
2021/07/05 04:51:45;;;;;;;;;;;17.20;80.50;;;;;;5078899;28;20016;-78
2021/07/05 04:54:11;;;;;;;0.50;0.30;;;17.20;80.10;;;;;;5093918;28;19904;-78
2021/07/05 04:56:37;;;;;;;1.08;0.35;;;17.30;80.00;;;;;;5078119;28;20021;-78
2021/07/05 04:59:04;;;;;;;0.57;0.30;;;17.30;80.10;;;;;;5087021;28;20094;-78
2021/07/05 05:01:54;;;;;;;0.30;0.30;;;17.30;80.20;;;;;;5098488;28;20089;-78
2021/07/05 05:04:20;;;;;;;0.60;0.30;;;17.40;80.00;;;;;;5093074;28;20036;-77
2021/07/05 05:06:46;;;;;;;0.75;0.35;;;17.50;80.30;;;;;;5093524;28;20547;-77
2021/07/05 05:09:11;;;;;;;0.77;0.45;;;17.60;79.70;;;;;;5087110;28;20032;-78
2021/07/05 05:11:37;;;;;;;0.57;0.40;;;17.50;79.80;;;;;;5098233;28;20024;-78
2021/07/05 05:14:03;;;;;;;0.60;0.40;;;17.60;79.30;;;;;;5096067;28;20081;-82
2021/07/05 05:16:29;;;;;;;0.57;0.40;;;17.70;79.60;;;;;;5098105;28;20024;-79
2021/07/05 05:18:55;;;;;;;0.47;0.38;;;17.70;79.00;;;;;;5098059;28;20047;-79
2021/07/05 05:21:21;;;;;;;0.30;0.30;;;17.80;78.80;;;;;;5080151;28;20040;-79
2021/07/05 05:23:52;;;;;;;0.40;0.30;;;17.80;79.00;;;;;;5080038;28;20108;-79
2021/07/05 05:26:17;;;;;;;0.70;0.40;;;17.70;78.80;;;;;;5077262;28;20082;-78
2021/07/05 05:28:48;;;;;;;0.75;0.40;;;17.70;78.70;;;;;;5077552;28;20052;-76
2021/07/05 05:31:14;;;;;;;1.10;0.40;;;17.60;78.80;;;;;;5077712;28;20032;-79
2021/07/05 05:33:39;;;;;;;0.60;0.40;;;17.70;78.70;;;;;;5074642;28;20032;-79
2021/07/05 05:36:05;;;;;;;1.17;0.50;;;17.80;78.50;;;;;;5089351;28;20500;-79
2021/07/05 05:38:31;;;;;;;1.10;0.40;;;17.80;78.00;;;;;;5096925;28;20237;-79
2021/07/05 05:40:56;;;;;;;0.50;0.40;;;17.70;78.20;;;;;;5097660;28;20081;-79
2021/07/05 05:43:22;;;;;;;0.65;0.50;;;17.70;78.50;;;;;;5085403;28;20026;-80
2021/07/05 05:45:48;;;;;;;0.77;0.40;;;17.70;78.30;;;;;;5097267;28;20375;-80
2021/07/05 05:48:13;;;;;;;0.40;0.30;;;17.70;78.30;;;;;;5091486;28;20028;-79
2021/07/05 05:50:39;;;;;;;0.70;0.50;;;17.80;78.10;;;;;;5085291;28;20025;-80
2021/07/05 05:53:05;;;;;;;1.13;0.45;;;17.80;78.60;;;;;;5086604;28;20124;-82
2021/07/05 05:55:31;;;;;;;0.57;0.40;;;17.70;78.60;;;;;;5076394;28;20020;-80
2021/07/05 05:57:57;;;;;;;0.77;0.50;;;17.70;78.80;;;;;;5076442;28;20078;-83
2021/07/05 06:00:24;;;;;;;0.60;0.40;;;17.70;78.60;;;;;;5075885;28;20032;-83
2021/07/05 06:02:51;;;;;;;0.60;0.38;;;17.70;78.80;;;;;;5076676;28;20066;-83
2021/07/05 06:05:17;;;;;;;0.93;0.30;;;17.70;79.00;;;;;;5076665;28;20044;-82
2021/07/05 06:07:50;;;;;;;0.30;0.25;;;17.60;79.20;;;;;;5076809;28;20085;-83
2021/07/05 06:10:18;;;;;;;0.50;0.35;;;17.60;78.90;;;;;;5093350;28;20094;-83
2021/07/05 06:12:44;;;;;;;1.05;0.50;;;17.80;78.70;;;;;;5095017;28;20028;-82
2021/07/05 06:15:10;;;;;;;0.30;0.30;;;17.90;78.40;;;;;;5096952;28;20096;-83
2021/07/05 06:17:36;;;;;;;0.30;0.20;;;18.00;78.10;;;;;;5078381;28;20021;-83
2021/07/05 06:20:05;;;;;;;0.20;0.20;;;18.30;76.80;;;;;;5076363;28;20055;-82
2021/07/05 06:22:38;;;;;;;0.30;0.20;;;18.50;76.50;;;;;;5082402;28;20095;-82
2021/07/05 06:25:04;;;;;;;0.30;0.20;;;18.50;76.40;;;;;;5095593;28;20028;-82
2021/07/05 06:27:30;;;;;;;0.25;0.20;;;18.40;76.40;;;;;;5096678;28;20067;-82
2021/07/05 06:29:55;;;;;;;0.30;0.20;;;18.40;76.80;;;;;;5095253;28;20479;-82
2021/07/05 06:32:21;;;;;;;0.57;0.30;;;18.40;76.10;;;;;;5080558;28;20396;-82
2021/07/05 06:34:47;;;;;;;0.50;0.30;;;18.30;76.70;;;;;;5076209;28;20026;-83
2021/07/05 06:37:12;;;;;;;0.30;0.20;;;18.30;76.50;;;;;;5076467;28;20021;-82
2021/07/05 06:39:38;;;;;;;0.50;0.30;;;18.30;76.80;;;;;;5076249;28;20024;-82
2021/07/05 06:42:04;;;;;;;0.60;0.32;;;18.40;76.70;;;;;;5075997;28;20078;-82
2021/07/05 06:44:30;;;;;;;0.32;0.20;;;18.60;76.30;;;;;;5094801;28;20032;-83
2021/07/05 06:46:56;;;;;;;0.20;0.20;;;18.60;75.30;;;;;;5096376;28;20024;-82
2021/07/05 06:49:22;;;;;;;0.28;0.20;;;18.70;75.60;;;;;;5095528;28;20096;-82
2021/07/05 06:51:50;;;;;;;0.47;0.28;;;18.60;75.40;;;;;;5078175;28;20474;-82
2021/07/05 06:54:15;;;;;;;0.82;0.40;;;18.50;75.60;;;;;;5091496;28;20028;-82
2021/07/05 06:56:42;;;;;;;0.50;0.30;;;18.40;75.80;;;;;;5088888;28;20094;-83
2021/07/05 06:59:07;;;;;;;0.40;0.30;;;18.20;76.90;;;;;;5075919;28;20043;-83
2021/07/05 07:01:34;;;;;;;0.60;0.40;;;18.30;76.40;;;;;;5075673;28;20025;-83
2021/07/05 07:04:00;;;;;;;0.40;0.40;;;18.40;76.40;;;;;;5074560;28;20031;-82
2021/07/05 07:06:26;;;;;;;0.30;0.20;;;18.70;74.60;;;;;;5075722;28;20021;-83
2021/07/05 07:08:52;;;;;;;0.50;0.30;;;18.80;75.90;;;;;;5075455;28;20040;-83
2021/07/05 07:11:19;;;;;;;0.30;0.28;;;18.90;74.60;;;;;;5075789;28;20107;-83
2021/07/05 07:13:45;;;;;;;0.40;0.28;;;19.40;74.00;;;;;;5075754;28;20074;-83
2021/07/05 07:16:14;;;;;;;0.30;0.20;;;20.00;72.50;;;;;;5075222;28;20021;-83
2021/07/05 07:21:24;;;;;;;0.22;0.20;;;20.20;69.60;;;;;;5075747;28;20051;-83
2021/07/05 07:23:50;;;;;;;0.20;0.20;;;19.80;70.60;;;;;;5074406;28;20119;-82
2021/07/05 07:26:16;;;;;;;0.30;0.20;;;19.90;70.60;;;;;;5075678;28;20029;-83
2021/07/05 07:28:42;;;;;;;0.20;0.20;;;19.70;71.30;;;;;;5075593;28;20040;-83
2021/07/05 07:31:07;;;;;;;0.30;0.20;;;19.60;71.80;;;;;;5075659;28;20039;-83
2021/07/05 07:33:33;;;;;;;0.38;0.20;;;19.60;72.20;;;;;;5075252;28;20483;-83
2021/07/05 07:36:02;;;;;;;0.38;0.28;;;19.70;72.40;;;;;;5075459;28;20028;-83
2021/07/05 07:38:34;;;;;;;0.60;0.20;;;19.70;71.70;;;;;;5075237;28;20021;-83
2021/07/05 07:40:59;;;;;;;0.15;0.10;;;19.70;71.40;;;;;;5075113;28;20107;-83
2021/07/05 07:43:25;;;;;;;0.10;0.10;;;19.80;71.20;;;;;;5083689;28;20078;-83
2021/07/05 07:45:50;;;;;;;0.38;0.20;;;19.90;71.10;;;;;;5095471;28;20028;-83
2021/07/05 07:48:16;;;;;;;0.20;0.20;;;19.70;71.40;;;;;;5095406;28;20031;-83
2021/07/05 07:50:42;;;;;;;0.28;0.20;;;19.80;72.10;;;;;;5094156;28;20030;-83
2021/07/05 07:53:07;;;;;;;0.30;0.20;;;19.80;71.20;;;;;;5095598;28;20024;-84
2021/07/05 07:55:33;;;;;;;0.60;0.20;;;19.80;70.70;;;;;;5094471;28;20050;-83
2021/07/05 07:57:59;;;;;;;0.20;0.20;;;19.70;70.80;;;;;;5095497;28;20386;-83
2021/07/05 08:00:29;;;;;;;0.30;0.15;;;19.50;71.30;;;;;;5094912;28;20070;-83
2021/07/05 08:02:55;;;;;;;0.20;0.17;;;19.30;71.40;;;;;;5099577;28;20729;-83
2021/07/05 08:05:21;;;;;;;0.30;0.20;;;19.30;71.10;;;;;;5081165;28;20039;-83
2021/07/05 08:07:46;;;;;;;0.22;0.20;;;19.20;70.80;;;;;;5094524;28;20040;-83
2021/07/05 08:10:15;;;;;;;0.30;0.10;;;19.20;72.40;;;;;;5079085;28;20082;-83
2021/07/05 08:12:44;;;;;;;0.20;0.20;;;19.10;72.10;;;;;;5079083;28;20078;-83
2021/07/05 08:15:12;;;;;;;0.50;0.20;;;19.30;73.30;;;;;;5077830;28;20513;-83
2021/07/05 08:17:38;;;;;;;0.65;0.20;;;19.30;71.80;;;;;;5098295;28;20545;-83
2021/07/05 08:20:07;;;;;;;0.30;0.20;;;19.20;73.10;;;;;;5097970;28;20074;-83
2021/07/05 08:22:34;;;;;;;0.20;0.20;;;19.30;72.80;;;;;;5097892;28;20451;-83
2021/07/05 08:25:00;;;;;;;0.20;0.20;;;19.30;72.30;;;;;;5078793;28;20025;-83
2021/07/05 08:27:26;;;;;;;0.30;0.20;;;19.50;72.90;;;;;;5083763;28;20044;-83
2021/07/05 08:29:52;;;;;;;0.52;0.30;;;19.70;72.50;;;;;;5096120;28;20043;-84
2021/07/05 08:32:18;;;;;;;1.02;0.30;;;19.80;70.30;;;;;;5093327;28;20021;-83
2021/07/05 08:34:44;;;;;;;0.32;0.20;;;19.80;70.90;;;;;;5078480;28;20066;-83
2021/07/05 08:37:10;;;;;;;0.30;0.20;;;19.50;71.80;;;;;;5094367;28;20576;-83
2021/07/05 08:39:36;;;;;;;0.32;0.30;;;19.20;71.60;;;;;;5078433;28;20475;-83
2021/07/05 08:42:02;;;;;;;0.28;0.20;;;19.30;72.60;;;;;;5078564;28;20395;-83
2021/07/05 08:44:28;;;;;;;0.40;0.20;;;19.40;72.00;;;;;;5089002;28;20040;-84
2021/07/05 08:46:55;;;;;;;0.20;0.10;;;19.60;70.60;;;;;;5077293;28;20025;-83
2021/07/05 08:49:21;;;;;;;0.20;0.20;;;19.90;69.30;;;;;;5078503;28;20024;-84
2021/07/05 08:51:47;;;;;;;0.10;0.10;;;20.20;70.20;;;;;;5078238;28;20036;-82
2021/07/05 08:54:12;;;;;;;0.20;0.20;;;20.50;69.40;;;;;;5094684;28;20091;-85
2021/07/05 08:56:38;;;;;;;0.73;0.20;;;21.00;69.10;;;;;;5098670;28;20398;-83
2021/07/05 08:59:04;;;;;;;0.20;0.10;;;22.10;65.50;;;;;;5084651;28;20025;-84
2021/07/05 09:01:29;;;;;;;0.73;0.30;;;23.00;61.50;;;;;;5077044;28;20028;-84
2021/07/05 09:03:55;;;;;;;0.08;0.03;;;23.80;60.50;;;;;;5078098;28;20823;-84
2021/07/05 09:06:23;;;;;;;0.20;0.10;;;24.80;56.10;;;;;;5077995;28;20103;-84
2021/07/05 09:08:57;;;;;;;0.30;0.10;;;24.30;57.90;;;;;;5077539;28;20127;-84
2021/07/05 09:11:35;;;;;;;0.50;0.10;;;23.70;58.00;;;;;;5076781;28;20036;-84
2021/07/05 09:14:01;;;;;;;0.40;0.10;;;22.90;59.50;;;;;;5077507;28;20031;-84
2021/07/05 09:16:35;;;;;;;0.77;0.10;;;22.30;61.70;;;;;;5076424;28;20024;-85
2021/07/05 09:19:12;;;;;;;0.25;0.10;;;22.10;62.90;;;;;;5077887;28;20058;-84
2021/07/05 09:21:37;;;;;;;0.10;0.10;;;21.60;63.80;;;;;;5077874;28;20391;-84
2021/07/05 09:24:07;;;;;;;0.32;0.10;;;21.20;67.00;;;;;;5077503;28;20024;-84
2021/07/05 09:26:34;;;;;;;0.20;0.10;;;21.00;69.00;;;;;;5077574;28;20383;-84
